sensor_id;sensor_type;location;lat;lon;timestamp;P1;durP1;ratioP1;P2;durP2;ratioP2
36233;SDS011;43467;50.890;5.982;2023-02-01T00:01:36;16.00;;;6.38;;
36233;SDS011;43467;50.890;5.982;2023-02-01T00:04:02;23.48;;;6.60;;
36233;SDS011;43467;50.890;5.982;2023-02-01T00:06:27;21.88;;;6.53;;
36233;SDS011;43467;50.890;5.982;2023-02-01T00:08:53;26.02;;;7.72;;
36233;SDS011;43467;50.890;5.982;2023-02-01T00:11:19;16.55;;;5.85;;
36233;SDS011;43467;50.890;5.982;2023-02-01T00:13:45;17.20;;;6.47;;
36233;SDS011;43467;50.890;5.982;2023-02-01T00:16:14;22.30;;;7.55;;
36233;SDS011;43467;50.890;5.982;2023-02-01T00:18:48;29.55;;;7.57;;
36233;SDS011;43467;50.890;5.982;2023-02-01T00:21:16;18.85;;;7.30;;
36233;SDS011;43467;50.890;5.982;2023-02-01T00:23:43;20.95;;;7.22;;
36233;SDS011;43467;50.890;5.982;2023-02-01T00:26:19;18.30;;;7.15;;
36233;SDS011;43467;50.890;5.982;2023-02-01T00:28:47;30.50;;;8.30;;
36233;SDS011;43467;50.890;5.982;2023-02-01T00:31:13;19.67;;;7.88;;
36233;SDS011;43467;50.890;5.982;2023-02-01T00:33:39;22.45;;;9.70;;
36233;SDS011;43467;50.890;5.982;2023-02-01T00:36:06;25.42;;;10.70;;
36233;SDS011;43467;50.890;5.982;2023-02-01T00:38:33;19.13;;;10.18;;
36233;SDS011;43467;50.890;5.982;2023-02-01T00:41:04;31.95;;;11.98;;
36233;SDS011;43467;50.890;5.982;2023-02-01T00:43:32;24.10;;;10.98;;
36233;SDS011;43467;50.890;5.982;2023-02-01T00:45:58;25.65;;;10.88;;
36233;SDS011;43467;50.890;5.982;2023-02-01T00:48:23;28.15;;;11.50;;
36233;SDS011;43467;50.890;5.982;2023-02-01T00:50:50;30.25;;;11.85;;
36233;SDS011;43467;50.890;5.982;2023-02-01T00:53:16;29.50;;;12.25;;
36233;SDS011;43467;50.890;5.982;2023-02-01T00:55:44;30.17;;;12.98;;
36233;SDS011;43467;50.890;5.982;2023-02-01T00:58:10;28.88;;;12.15;;
36233;SDS011;43467;50.890;5.982;2023-02-01T01:00:35;27.65;;;11.57;;
36233;SDS011;43467;50.890;5.982;2023-02-01T01:03:01;29.48;;;11.85;;
36233;SDS011;43467;50.890;5.982;2023-02-01T01:05:26;31.17;;;11.18;;
36233;SDS011;43467;50.890;5.982;2023-02-01T01:07:52;32.30;;;12.05;;
36233;SDS011;43467;50.890;5.982;2023-02-01T01:10:18;30.23;;;11.40;;
36233;SDS011;43467;50.890;5.982;2023-02-01T01:12:43;31.45;;;11.50;;
36233;SDS011;43467;50.890;5.982;2023-02-01T01:15:09;21.70;;;11.07;;
36233;SDS011;43467;50.890;5.982;2023-02-01T01:17:34;29.23;;;11.52;;
36233;SDS011;43467;50.890;5.982;2023-02-01T01:20:00;30.40;;;12.05;;
36233;SDS011;43467;50.890;5.982;2023-02-01T01:22:25;32.53;;;12.57;;
36233;SDS011;43467;50.890;5.982;2023-02-01T01:24:51;23.73;;;11.60;;
36233;SDS011;43467;50.890;5.982;2023-02-01T01:27:16;25.40;;;11.90;;
36233;SDS011;43467;50.890;5.982;2023-02-01T01:29:47;35.70;;;12.15;;
36233;SDS011;43467;50.890;5.982;2023-02-01T01:32:13;25.20;;;11.93;;
36233;SDS011;43467;50.890;5.982;2023-02-01T01:34:38;31.13;;;12.60;;
36233;SDS011;43467;50.890;5.982;2023-02-01T01:37:04;25.77;;;11.27;;
36233;SDS011;43467;50.890;5.982;2023-02-01T01:39:29;27.77;;;11.23;;
36233;SDS011;43467;50.890;5.982;2023-02-01T01:41:54;25.05;;;11.63;;
36233;SDS011;43467;50.890;5.982;2023-02-01T01:47:23;26.48;;;10.10;;
36233;SDS011;43467;50.890;5.982;2023-02-01T01:49:50;22.38;;;10.55;;
36233;SDS011;43467;50.890;5.982;2023-02-01T01:52:15;23.52;;;10.25;;
36233;SDS011;43467;50.890;5.982;2023-02-01T01:54:43;29.33;;;10.50;;
36233;SDS011;43467;50.890;5.982;2023-02-01T01:57:17;23.60;;;9.40;;
36233;SDS011;43467;50.890;5.982;2023-02-01T01:59:50;24.15;;;10.05;;
36233;SDS011;43467;50.890;5.982;2023-02-01T02:02:21;26.17;;;10.95;;
36233;SDS011;43467;50.890;5.982;2023-02-01T02:04:46;28.00;;;10.35;;
36233;SDS011;43467;50.890;5.982;2023-02-01T02:07:20;28.40;;;10.63;;
36233;SDS011;43467;50.890;5.982;2023-02-01T02:09:50;23.90;;;9.45;;
36233;SDS011;43467;50.890;5.982;2023-02-01T02:12:17;19.20;;;9.13;;
36233;SDS011;43467;50.890;5.982;2023-02-01T02:14:42;24.63;;;10.68;;
36233;SDS011;43467;50.890;5.982;2023-02-01T02:19:54;25.05;;;10.15;;
36233;SDS011;43467;50.890;5.982;2023-02-01T02:34:21;25.40;;;10.02;;
36233;SDS011;43467;50.890;5.982;2023-02-01T02:45:29;24.35;;;8.40;;
36233;SDS011;43467;50.890;5.982;2023-02-01T02:48:35;22.98;;;9.73;;
36233;SDS011;43467;50.890;5.982;2023-02-01T02:54:09;30.60;;;8.82;;
36233;SDS011;43467;50.890;5.982;2023-02-01T02:56:56;26.73;;;8.60;;
36233;SDS011;43467;50.890;5.982;2023-02-01T02:59:43;24.52;;;9.00;;
36233;SDS011;43467;50.890;5.982;2023-02-01T03:02:29;28.67;;;9.15;;
36233;SDS011;43467;50.890;5.982;2023-02-01T03:05:14;26.85;;;9.45;;
36233;SDS011;43467;50.890;5.982;2023-02-01T03:10:10;27.48;;;9.68;;
36233;SDS011;43467;50.890;5.982;2023-02-01T03:12:40;29.52;;;9.95;;
36233;SDS011;43467;50.890;5.982;2023-02-01T03:15:20;23.75;;;10.20;;
36233;SDS011;43467;50.890;5.982;2023-02-01T03:18:02;30.83;;;10.20;;
36233;SDS011;43467;50.890;5.982;2023-02-01T03:20:34;29.52;;;10.27;;
36233;SDS011;43467;50.890;5.982;2023-02-01T03:23:03;19.58;;;8.27;;
36233;SDS011;43467;50.890;5.982;2023-02-01T03:25:31;35.83;;;9.50;;
36233;SDS011;43467;50.890;5.982;2023-02-01T03:28:02;30.48;;;9.52;;
36233;SDS011;43467;50.890;5.982;2023-02-01T03:30:34;28.13;;;9.02;;
36233;SDS011;43467;50.890;5.982;2023-02-01T03:33:05;29.67;;;8.60;;
36233;SDS011;43467;50.890;5.982;2023-02-01T03:41:13;19.70;;;7.20;;
36233;SDS011;43467;50.890;5.982;2023-02-01T03:44:31;23.88;;;7.38;;
36233;SDS011;43467;50.890;5.982;2023-02-01T03:46:41;32.90;;;8.13;;
36233;SDS011;43467;50.890;5.982;2023-02-01T03:49:15;43.28;;;8.40;;
36233;SDS011;43467;50.890;5.982;2023-02-01T03:51:45;28.63;;;7.50;;
36233;SDS011;43467;50.890;5.982;2023-02-01T03:54:14;20.05;;;6.78;;
36233;SDS011;43467;50.890;5.982;2023-02-01T03:56:42;19.42;;;5.93;;
36233;SDS011;43467;50.890;5.982;2023-02-01T03:59:10;25.23;;;6.93;;
36233;SDS011;43467;50.890;5.982;2023-02-01T04:01:36;25.23;;;7.72;;
36233;SDS011;43467;50.890;5.982;2023-02-01T04:04:02;33.35;;;6.75;;
36233;SDS011;43467;50.890;5.982;2023-02-01T04:06:27;24.85;;;6.43;;
36233;SDS011;43467;50.890;5.982;2023-02-01T04:08:53;20.70;;;6.38;;
36233;SDS011;43467;50.890;5.982;2023-02-01T04:11:18;21.63;;;5.88;;
36233;SDS011;43467;50.890;5.982;2023-02-01T04:13:44;21.10;;;6.68;;
36233;SDS011;43467;50.890;5.982;2023-02-01T04:16:10;20.08;;;5.50;;
36233;SDS011;43467;50.890;5.982;2023-02-01T04:18:35;25.73;;;6.55;;
36233;SDS011;43467;50.890;5.982;2023-02-01T04:21:01;24.30;;;5.70;;
36233;SDS011;43467;50.890;5.982;2023-02-01T04:23:27;16.33;;;5.03;;
36233;SDS011;43467;50.890;5.982;2023-02-01T04:25:53;21.52;;;6.35;;
36233;SDS011;43467;50.890;5.982;2023-02-01T04:28:19;24.83;;;5.57;;
36233;SDS011;43467;50.890;5.982;2023-02-01T04:30:45;30.83;;;5.95;;
36233;SDS011;43467;50.890;5.982;2023-02-01T04:33:11;20.48;;;5.07;;
36233;SDS011;43467;50.890;5.982;2023-02-01T04:35:39;24.88;;;5.72;;
36233;SDS011;43467;50.890;5.982;2023-02-01T04:38:05;20.48;;;5.35;;
36233;SDS011;43467;50.890;5.982;2023-02-01T04:40:31;22.30;;;5.20;;
36233;SDS011;43467;50.890;5.982;2023-02-01T04:42:57;26.08;;;4.95;;
36233;SDS011;43467;50.890;5.982;2023-02-01T04:45:23;22.60;;;5.38;;
36233;SDS011;43467;50.890;5.982;2023-02-01T04:47:48;23.55;;;5.15;;
36233;SDS011;43467;50.890;5.982;2023-02-01T04:50:13;20.30;;;6.43;;
36233;SDS011;43467;50.890;5.982;2023-02-01T04:52:39;29.40;;;6.60;;
36233;SDS011;43467;50.890;5.982;2023-02-01T04:55:05;20.83;;;5.22;;
36233;SDS011;43467;50.890;5.982;2023-02-01T04:57:31;28.90;;;6.30;;
36233;SDS011;43467;50.890;5.982;2023-02-01T04:59:56;25.23;;;6.00;;
36233;SDS011;43467;50.890;5.982;2023-02-01T05:02:22;15.75;;;4.60;;
36233;SDS011;43467;50.890;5.982;2023-02-01T05:04:47;23.63;;;5.07;;
36233;SDS011;43467;50.890;5.982;2023-02-01T05:07:13;23.20;;;4.97;;
36233;SDS011;43467;50.890;5.982;2023-02-01T05:09:38;20.23;;;4.70;;
36233;SDS011;43467;50.890;5.982;2023-02-01T05:12:03;21.33;;;6.07;;
36233;SDS011;43467;50.890;5.982;2023-02-01T05:14:48;24.95;;;5.60;;
36233;SDS011;43467;50.890;5.982;2023-02-01T05:17:14;28.70;;;5.47;;
36233;SDS011;43467;50.890;5.982;2023-02-01T05:19:39;23.23;;;5.20;;
36233;SDS011;43467;50.890;5.982;2023-02-01T05:22:04;16.75;;;4.50;;
36233;SDS011;43467;50.890;5.982;2023-02-01T05:24:30;19.05;;;5.57;;
36233;SDS011;43467;50.890;5.982;2023-02-01T05:26:55;23.42;;;5.50;;
36233;SDS011;43467;50.890;5.982;2023-02-01T05:29:21;20.52;;;5.05;;
36233;SDS011;43467;50.890;5.982;2023-02-01T05:31:46;32.63;;;5.72;;
36233;SDS011;43467;50.890;5.982;2023-02-01T05:34:13;15.25;;;4.22;;
36233;SDS011;43467;50.890;5.982;2023-02-01T05:36:39;19.08;;;5.80;;
36233;SDS011;43467;50.890;5.982;2023-02-01T05:39:05;32.55;;;5.68;;
36233;SDS011;43467;50.890;5.982;2023-02-01T05:41:31;21.35;;;4.63;;
36233;SDS011;43467;50.890;5.982;2023-02-01T05:43:56;20.20;;;5.40;;
36233;SDS011;43467;50.890;5.982;2023-02-01T05:46:22;27.88;;;5.60;;
36233;SDS011;43467;50.890;5.982;2023-02-01T05:48:47;24.45;;;4.82;;
36233;SDS011;43467;50.890;5.982;2023-02-01T05:51:13;20.42;;;5.47;;
36233;SDS011;43467;50.890;5.982;2023-02-01T05:53:38;30.17;;;6.50;;
36233;SDS011;43467;50.890;5.982;2023-02-01T05:56:04;22.25;;;5.78;;
36233;SDS011;43467;50.890;5.982;2023-02-01T05:58:30;25.48;;;5.57;;
36233;SDS011;43467;50.890;5.982;2023-02-01T06:00:55;22.25;;;6.35;;
36233;SDS011;43467;50.890;5.982;2023-02-01T06:03:21;18.92;;;5.22;;
36233;SDS011;43467;50.890;5.982;2023-02-01T06:05:47;18.10;;;4.93;;
36233;SDS011;43467;50.890;5.982;2023-02-01T06:08:13;25.42;;;6.30;;
36233;SDS011;43467;50.890;5.982;2023-02-01T06:10:38;21.15;;;6.15;;
36233;SDS011;43467;50.890;5.982;2023-02-01T06:13:04;22.20;;;5.47;;
36233;SDS011;43467;50.890;5.982;2023-02-01T06:15:29;28.05;;;5.72;;
36233;SDS011;43467;50.890;5.982;2023-02-01T06:17:56;21.63;;;4.95;;
36233;SDS011;43467;50.890;5.982;2023-02-01T06:20:21;15.60;;;5.18;;
36233;SDS011;43467;50.890;5.982;2023-02-01T06:22:46;29.73;;;5.30;;
36233;SDS011;43467;50.890;5.982;2023-02-01T06:25:12;25.15;;;5.15;;
36233;SDS011;43467;50.890;5.982;2023-02-01T06:27:37;25.05;;;5.38;;
36233;SDS011;43467;50.890;5.982;2023-02-01T06:30:04;27.27;;;6.78;;
36233;SDS011;43467;50.890;5.982;2023-02-01T06:32:30;24.83;;;6.15;;
36233;SDS011;43467;50.890;5.982;2023-02-01T06:34:56;30.17;;;5.38;;
36233;SDS011;43467;50.890;5.982;2023-02-01T06:37:22;26.88;;;5.85;;
36233;SDS011;43467;50.890;5.982;2023-02-01T06:39:49;26.55;;;6.07;;
36233;SDS011;43467;50.890;5.982;2023-02-01T06:42:15;24.23;;;5.88;;
36233;SDS011;43467;50.890;5.982;2023-02-01T06:44:40;28.77;;;5.90;;
36233;SDS011;43467;50.890;5.982;2023-02-01T06:47:06;19.85;;;5.35;;
36233;SDS011;43467;50.890;5.982;2023-02-01T06:49:31;24.95;;;5.53;;
36233;SDS011;43467;50.890;5.982;2023-02-01T06:51:57;28.45;;;6.38;;
36233;SDS011;43467;50.890;5.982;2023-02-01T06:54:25;27.75;;;6.75;;
36233;SDS011;43467;50.890;5.982;2023-02-01T06:56:51;24.35;;;5.80;;
36233;SDS011;43467;50.890;5.982;2023-02-01T06:59:16;24.77;;;6.43;;
36233;SDS011;43467;50.890;5.982;2023-02-01T07:01:41;27.80;;;5.47;;
36233;SDS011;43467;50.890;5.982;2023-02-01T07:04:08;28.08;;;6.70;;
36233;SDS011;43467;50.890;5.982;2023-02-01T07:06:36;19.13;;;5.45;;
36233;SDS011;43467;50.890;5.982;2023-02-01T07:09:01;33.55;;;6.03;;
36233;SDS011;43467;50.890;5.982;2023-02-01T07:11:26;23.30;;;5.68;;
36233;SDS011;43467;50.890;5.982;2023-02-01T07:13:53;30.20;;;5.60;;
36233;SDS011;43467;50.890;5.982;2023-02-01T07:16:18;21.42;;;4.95;;
36233;SDS011;43467;50.890;5.982;2023-02-01T07:18:45;26.85;;;6.00;;
36233;SDS011;43467;50.890;5.982;2023-02-01T07:21:11;20.77;;;5.05;;
36233;SDS011;43467;50.890;5.982;2023-02-01T07:23:37;22.00;;;5.85;;
36233;SDS011;43467;50.890;5.982;2023-02-01T07:26:03;23.65;;;5.20;;
36233;SDS011;43467;50.890;5.982;2023-02-01T07:28:32;24.58;;;5.75;;
36233;SDS011;43467;50.890;5.982;2023-02-01T07:31:02;22.23;;;5.68;;
36233;SDS011;43467;50.890;5.982;2023-02-01T07:33:32;31.27;;;5.72;;
36233;SDS011;43467;50.890;5.982;2023-02-01T07:36:00;21.38;;;4.88;;
36233;SDS011;43467;50.890;5.982;2023-02-01T07:38:27;24.52;;;6.50;;
36233;SDS011;43467;50.890;5.982;2023-02-01T07:40:57;26.15;;;6.20;;
36233;SDS011;43467;50.890;5.982;2023-02-01T07:43:23;22.67;;;4.82;;
36233;SDS011;43467;50.890;5.982;2023-02-01T07:45:52;20.48;;;5.28;;
36233;SDS011;43467;50.890;5.982;2023-02-01T07:48:19;24.58;;;6.82;;
36233;SDS011;43467;50.890;5.982;2023-02-01T07:50:45;20.63;;;5.40;;
36233;SDS011;43467;50.890;5.982;2023-02-01T07:53:10;29.80;;;5.85;;
36233;SDS011;43467;50.890;5.982;2023-02-01T07:55:39;23.85;;;5.22;;
36233;SDS011;43467;50.890;5.982;2023-02-01T07:58:05;41.60;;;7.45;;
36233;SDS011;43467;50.890;5.982;2023-02-01T08:00:30;23.70;;;6.20;;
36233;SDS011;43467;50.890;5.982;2023-02-01T08:03:14;27.17;;;5.40;;
36233;SDS011;43467;50.890;5.982;2023-02-01T08:05:40;25.08;;;6.13;;
36233;SDS011;43467;50.890;5.982;2023-02-01T08:08:05;28.58;;;5.63;;
36233;SDS011;43467;50.890;5.982;2023-02-01T08:10:31;19.85;;;5.97;;
36233;SDS011;43467;50.890;5.982;2023-02-01T08:12:57;22.35;;;5.38;;
36233;SDS011;43467;50.890;5.982;2023-02-01T08:15:25;27.67;;;6.03;;
36233;SDS011;43467;50.890;5.982;2023-02-01T08:17:51;24.35;;;6.57;;
36233;SDS011;43467;50.890;5.982;2023-02-01T08:20:17;25.90;;;6.03;;
36233;SDS011;43467;50.890;5.982;2023-02-01T08:22:43;27.45;;;6.03;;
36233;SDS011;43467;50.890;5.982;2023-02-01T08:25:09;24.73;;;5.57;;
36233;SDS011;43467;50.890;5.982;2023-02-01T08:27:35;28.70;;;6.18;;
36233;SDS011;43467;50.890;5.982;2023-02-01T08:30:02;32.53;;;6.30;;
36233;SDS011;43467;50.890;5.982;2023-02-01T08:32:28;22.33;;;6.10;;
36233;SDS011;43467;50.890;5.982;2023-02-01T08:34:53;23.75;;;5.50;;
36233;SDS011;43467;50.890;5.982;2023-02-01T08:37:19;26.27;;;6.05;;
36233;SDS011;43467;50.890;5.982;2023-02-01T08:39:44;23.48;;;6.93;;
36233;SDS011;43467;50.890;5.982;2023-02-01T08:42:10;21.05;;;5.65;;
36233;SDS011;43467;50.890;5.982;2023-02-01T08:44:54;24.60;;;5.43;;
36233;SDS011;43467;50.890;5.982;2023-02-01T08:47:20;23.98;;;5.97;;
36233;SDS011;43467;50.890;5.982;2023-02-01T08:49:46;29.83;;;6.45;;
36233;SDS011;43467;50.890;5.982;2023-02-01T08:52:11;31.55;;;6.70;;
36233;SDS011;43467;50.890;5.982;2023-02-01T08:54:37;26.98;;;5.90;;
36233;SDS011;43467;50.890;5.982;2023-02-01T08:57:04;26.27;;;5.63;;
36233;SDS011;43467;50.890;5.982;2023-02-01T08:59:30;26.70;;;5.65;;
36233;SDS011;43467;50.890;5.982;2023-02-01T09:01:55;24.15;;;5.43;;
36233;SDS011;43467;50.890;5.982;2023-02-01T09:04:21;28.40;;;5.78;;
36233;SDS011;43467;50.890;5.982;2023-02-01T09:06:46;14.77;;;5.15;;
36233;SDS011;43467;50.890;5.982;2023-02-01T09:09:11;24.67;;;4.97;;
36233;SDS011;43467;50.890;5.982;2023-02-01T09:11:37;24.25;;;5.63;;
36233;SDS011;43467;50.890;5.982;2023-02-01T09:14:02;22.55;;;6.05;;
36233;SDS011;43467;50.890;5.982;2023-02-01T09:16:28;28.05;;;6.35;;
36233;SDS011;43467;50.890;5.982;2023-02-01T09:18:53;29.27;;;5.57;;
36233;SDS011;43467;50.890;5.982;2023-02-01T09:21:20;27.85;;;5.72;;
36233;SDS011;43467;50.890;5.982;2023-02-01T09:23:45;28.15;;;5.50;;
36233;SDS011;43467;50.890;5.982;2023-02-01T09:26:13;28.35;;;5.88;;
36233;SDS011;43467;50.890;5.982;2023-02-01T09:28:39;27.92;;;5.82;;
36233;SDS011;43467;50.890;5.982;2023-02-01T09:31:04;30.63;;;5.78;;
36233;SDS011;43467;50.890;5.982;2023-02-01T09:33:30;24.17;;;5.65;;
36233;SDS011;43467;50.890;5.982;2023-02-01T09:35:57;28.55;;;5.13;;
36233;SDS011;43467;50.890;5.982;2023-02-01T09:38:23;27.10;;;6.03;;
36233;SDS011;43467;50.890;5.982;2023-02-01T09:40:50;36.88;;;6.68;;
36233;SDS011;43467;50.890;5.982;2023-02-01T09:43:21;23.40;;;4.65;;
36233;SDS011;43467;50.890;5.982;2023-02-01T09:48:55;30.37;;;7.67;;
36233;SDS011;43467;50.890;5.982;2023-02-01T09:51:36;22.35;;;5.45;;
36233;SDS011;43467;50.890;5.982;2023-02-01T09:54:17;22.20;;;6.38;;
36233;SDS011;43467;50.890;5.982;2023-02-01T09:57:03;32.50;;;6.55;;
36233;SDS011;43467;50.890;5.982;2023-02-01T09:59:40;23.98;;;6.32;;
36233;SDS011;43467;50.890;5.982;2023-02-01T10:02:16;26.63;;;5.95;;
36233;SDS011;43467;50.890;5.982;2023-02-01T10:04:44;25.60;;;6.28;;
36233;SDS011;43467;50.890;5.982;2023-02-01T10:09:58;24.10;;;5.35;;
36233;SDS011;43467;50.890;5.982;2023-02-01T10:15:17;26.75;;;5.68;;
36233;SDS011;43467;50.890;5.982;2023-02-01T10:17:57;31.55;;;6.30;;
36233;SDS011;43467;50.890;5.982;2023-02-01T10:26:22;25.10;;;5.65;;
36233;SDS011;43467;50.890;5.982;2023-02-01T10:28:56;26.15;;;5.47;;
36233;SDS011;43467;50.890;5.982;2023-02-01T10:31:25;22.45;;;5.57;;
36233;SDS011;43467;50.890;5.982;2023-02-01T10:34:01;25.40;;;6.00;;
36233;SDS011;43467;50.890;5.982;2023-02-01T10:36:49;22.52;;;5.38;;
36233;SDS011;43467;50.890;5.982;2023-02-01T10:39:15;18.98;;;6.40;;
36233;SDS011;43467;50.890;5.982;2023-02-01T10:41:41;31.92;;;6.03;;
36233;SDS011;43467;50.890;5.982;2023-02-01T10:44:12;29.27;;;6.15;;
36233;SDS011;43467;50.890;5.982;2023-02-01T10:46:43;38.58;;;6.28;;
36233;SDS011;43467;50.890;5.982;2023-02-01T10:49:12;24.33;;;6.32;;
36233;SDS011;43467;50.890;5.982;2023-02-01T10:51:45;29.27;;;5.60;;
36233;SDS011;43467;50.890;5.982;2023-02-01T10:54:32;18.75;;;4.90;;
36233;SDS011;43467;50.890;5.982;2023-02-01T10:56:59;25.83;;;5.57;;
36233;SDS011;43467;50.890;5.982;2023-02-01T10:59:25;21.15;;;6.25;;
36233;SDS011;43467;50.890;5.982;2023-02-01T11:01:58;19.30;;;5.40;;
36233;SDS011;43467;50.890;5.982;2023-02-01T11:04:26;19.85;;;5.68;;
36233;SDS011;43467;50.890;5.982;2023-02-01T11:07:12;28.08;;;5.80;;
36233;SDS011;43467;50.890;5.982;2023-02-01T11:09:42;24.25;;;5.25;;
36233;SDS011;43467;50.890;5.982;2023-02-01T11:12:47;31.10;;;5.75;;
36233;SDS011;43467;50.890;5.982;2023-02-01T11:15:14;20.70;;;5.47;;
36233;SDS011;43467;50.890;5.982;2023-02-01T11:17:45;21.40;;;5.22;;
36233;SDS011;43467;50.890;5.982;2023-02-01T11:20:14;19.25;;;5.25;;
36233;SDS011;43467;50.890;5.982;2023-02-01T11:22:47;23.63;;;6.55;;
36233;SDS011;43467;50.890;5.982;2023-02-01T11:25:17;20.15;;;5.18;;
36233;SDS011;43467;50.890;5.982;2023-02-01T11:27:43;25.85;;;5.93;;
36233;SDS011;43467;50.890;5.982;2023-02-01T11:30:16;23.60;;;4.72;;
36233;SDS011;43467;50.890;5.982;2023-02-01T11:32:45;18.80;;;4.72;;
36233;SDS011;43467;50.890;5.982;2023-02-01T11:35:13;18.42;;;4.75;;
36233;SDS011;43467;50.890;5.982;2023-02-01T11:37:43;22.15;;;5.07;;
36233;SDS011;43467;50.890;5.982;2023-02-01T11:42:52;24.00;;;5.82;;
36233;SDS011;43467;50.890;5.982;2023-02-01T11:45:27;18.38;;;5.60;;
36233;SDS011;43467;50.890;5.982;2023-02-01T11:47:56;26.50;;;5.53;;
36233;SDS011;43467;50.890;5.982;2023-02-01T12:01:42;20.80;;;5.00;;
36233;SDS011;43467;50.890;5.982;2023-02-01T12:10:36;20.50;;;5.65;;
36233;SDS011;43467;50.890;5.982;2023-02-01T12:18:54;20.52;;;4.53;;
36233;SDS011;43467;50.890;5.982;2023-02-01T12:41:28;18.52;;;4.85;;
36233;SDS011;43467;50.890;5.982;2023-02-01T12:44:02;21.73;;;5.60;;
36233;SDS011;43467;50.890;5.982;2023-02-01T12:46:46;16.83;;;4.25;;
36233;SDS011;43467;50.890;5.982;2023-02-01T12:49:19;14.20;;;4.55;;
36233;SDS011;43467;50.890;5.982;2023-02-01T12:52:04;16.38;;;4.85;;
36233;SDS011;43467;50.890;5.982;2023-02-01T12:54:43;26.60;;;5.10;;
36233;SDS011;43467;50.890;5.982;2023-02-01T12:57:28;20.45;;;4.45;;
36233;SDS011;43467;50.890;5.982;2023-02-01T13:02:35;16.67;;;4.93;;
36233;SDS011;43467;50.890;5.982;2023-02-01T13:05:18;19.45;;;4.45;;
36233;SDS011;43467;50.890;5.982;2023-02-01T13:07:48;19.52;;;5.38;;
36233;SDS011;43467;50.890;5.982;2023-02-01T13:10:42;22.02;;;4.05;;
36233;SDS011;43467;50.890;5.982;2023-02-01T13:13:17;21.90;;;4.07;;
36233;SDS011;43467;50.890;5.982;2023-02-01T13:15:49;27.98;;;4.25;;
36233;SDS011;43467;50.890;5.982;2023-02-01T13:18:39;17.88;;;4.10;;
36233;SDS011;43467;50.890;5.982;2023-02-01T13:24:07;19.25;;;4.88;;
36233;SDS011;43467;50.890;5.982;2023-02-01T13:27:03;16.58;;;4.10;;
36233;SDS011;43467;50.890;5.982;2023-02-01T13:29:28;19.73;;;4.57;;
36233;SDS011;43467;50.890;5.982;2023-02-01T13:32:19;20.63;;;4.72;;
36233;SDS011;43467;50.890;5.982;2023-02-01T13:43:53;23.80;;;4.00;;
36233;SDS011;43467;50.890;5.982;2023-02-01T13:46:21;24.52;;;5.05;;
36233;SDS011;43467;50.890;5.982;2023-02-01T13:51:28;16.23;;;4.07;;
36233;SDS011;43467;50.890;5.982;2023-02-01T13:54:23;18.55;;;3.88;;
36233;SDS011;43467;50.890;5.982;2023-02-01T13:56:54;16.02;;;4.15;;
36233;SDS011;43467;50.890;5.982;2023-02-01T14:05:10;20.08;;;5.00;;
36233;SDS011;43467;50.890;5.982;2023-02-01T14:08:02;14.98;;;3.90;;
36233;SDS011;43467;50.890;5.982;2023-02-01T14:15:38;15.70;;;3.75;;
36233;SDS011;43467;50.890;5.982;2023-02-01T14:18:24;21.17;;;5.03;;
36233;SDS011;43467;50.890;5.982;2023-02-01T14:28:52;16.02;;;3.60;;
36233;SDS011;43467;50.890;5.982;2023-02-01T14:33:58;15.73;;;3.22;;
36233;SDS011;43467;50.890;5.982;2023-02-01T14:36:25;17.00;;;4.05;;
36233;SDS011;43467;50.890;5.982;2023-02-01T14:39:01;13.38;;;3.30;;
36233;SDS011;43467;50.890;5.982;2023-02-01T14:41:31;15.70;;;3.55;;
36233;SDS011;43467;50.890;5.982;2023-02-01T14:49:29;15.20;;;3.50;;
36233;SDS011;43467;50.890;5.982;2023-02-01T14:51:57;13.00;;;3.20;;
36233;SDS011;43467;50.890;5.982;2023-02-01T14:54:23;19.85;;;3.38;;
36233;SDS011;43467;50.890;5.982;2023-02-01T14:56:50;15.43;;;3.72;;
36233;SDS011;43467;50.890;5.982;2023-02-01T14:59:16;13.38;;;3.58;;
36233;SDS011;43467;50.890;5.982;2023-02-01T15:01:50;21.70;;;4.60;;
36233;SDS011;43467;50.890;5.982;2023-02-01T15:04:19;11.93;;;3.00;;
36233;SDS011;43467;50.890;5.982;2023-02-01T15:09:28;12.95;;;3.20;;
36233;SDS011;43467;50.890;5.982;2023-02-01T15:14:25;13.13;;;3.08;;
36233;SDS011;43467;50.890;5.982;2023-02-01T15:16:51;14.30;;;3.67;;
36233;SDS011;43467;50.890;5.982;2023-02-01T15:19:23;13.95;;;4.07;;
36233;SDS011;43467;50.890;5.982;2023-02-01T15:21:51;16.30;;;3.90;;
36233;SDS011;43467;50.890;5.982;2023-02-01T15:24:28;17.48;;;3.90;;
36233;SDS011;43467;50.890;5.982;2023-02-01T15:26:55;13.48;;;3.85;;
36233;SDS011;43467;50.890;5.982;2023-02-01T15:29:26;17.52;;;3.15;;
36233;SDS011;43467;50.890;5.982;2023-02-01T15:31:57;17.25;;;3.55;;
36233;SDS011;43467;50.890;5.982;2023-02-01T15:34:22;16.95;;;3.55;;
36233;SDS011;43467;50.890;5.982;2023-02-01T15:36:47;16.17;;;3.67;;
36233;SDS011;43467;50.890;5.982;2023-02-01T15:39:21;14.70;;;3.90;;
36233;SDS011;43467;50.890;5.982;2023-02-01T15:41:55;15.02;;;3.50;;
36233;SDS011;43467;50.890;5.982;2023-02-01T15:44:30;20.42;;;4.25;;
36233;SDS011;43467;50.890;5.982;2023-02-01T15:46:56;21.90;;;4.82;;
36233;SDS011;43467;50.890;5.982;2023-02-01T15:51:52;22.45;;;4.28;;
36233;SDS011;43467;50.890;5.982;2023-02-01T15:54:20;19.67;;;4.45;;
36233;SDS011;43467;50.890;5.982;2023-02-01T15:56:51;15.75;;;4.03;;
36233;SDS011;43467;50.890;5.982;2023-02-01T15:59:20;16.38;;;4.22;;
36233;SDS011;43467;50.890;5.982;2023-02-01T16:01:50;21.40;;;4.85;;
36233;SDS011;43467;50.890;5.982;2023-02-01T16:04:23;24.63;;;5.25;;
36233;SDS011;43467;50.890;5.982;2023-02-01T16:07:01;21.17;;;4.88;;
36233;SDS011;43467;50.890;5.982;2023-02-01T16:09:39;19.52;;;3.92;;
36233;SDS011;43467;50.890;5.982;2023-02-01T16:12:34;15.25;;;3.58;;
36233;SDS011;43467;50.890;5.982;2023-02-01T16:15:11;19.63;;;4.50;;
36233;SDS011;43467;50.890;5.982;2023-02-01T16:17:37;21.10;;;4.40;;
36233;SDS011;43467;50.890;5.982;2023-02-01T16:20:03;17.67;;;3.83;;
36233;SDS011;43467;50.890;5.982;2023-02-01T16:22:28;12.05;;;3.53;;
36233;SDS011;43467;50.890;5.982;2023-02-01T16:24:53;16.38;;;4.38;;
36233;SDS011;43467;50.890;5.982;2023-02-01T16:27:19;20.60;;;4.75;;
36233;SDS011;43467;50.890;5.982;2023-02-01T16:29:46;19.20;;;5.40;;
36233;SDS011;43467;50.890;5.982;2023-02-01T16:32:14;17.30;;;3.67;;
36233;SDS011;43467;50.890;5.982;2023-02-01T16:34:42;18.65;;;4.13;;
36233;SDS011;43467;50.890;5.982;2023-02-01T16:37:10;20.33;;;4.68;;
36233;SDS011;43467;50.890;5.982;2023-02-01T16:39:37;13.05;;;4.00;;
36233;SDS011;43467;50.890;5.982;2023-02-01T16:42:08;17.55;;;4.43;;
36233;SDS011;43467;50.890;5.982;2023-02-01T16:44:36;14.38;;;4.35;;
36233;SDS011;43467;50.890;5.982;2023-02-01T16:47:02;17.92;;;4.60;;
36233;SDS011;43467;50.890;5.982;2023-02-01T16:49:27;18.52;;;4.97;;
36233;SDS011;43467;50.890;5.982;2023-02-01T16:51:56;18.33;;;4.35;;
36233;SDS011;43467;50.890;5.982;2023-02-01T16:54:23;17.33;;;3.58;;
36233;SDS011;43467;50.890;5.982;2023-02-01T16:56:48;19.48;;;4.47;;
36233;SDS011;43467;50.890;5.982;2023-02-01T16:59:14;18.98;;;4.70;;
36233;SDS011;43467;50.890;5.982;2023-02-01T17:01:40;12.88;;;4.40;;
36233;SDS011;43467;50.890;5.982;2023-02-01T17:04:07;15.50;;;4.32;;
36233;SDS011;43467;50.890;5.982;2023-02-01T17:06:34;19.25;;;4.22;;
36233;SDS011;43467;50.890;5.982;2023-02-01T17:09:04;17.58;;;4.53;;
36233;SDS011;43467;50.890;5.982;2023-02-01T17:11:30;14.23;;;4.32;;
36233;SDS011;43467;50.890;5.982;2023-02-01T17:13:56;13.38;;;4.30;;
36233;SDS011;43467;50.890;5.982;2023-02-01T17:16:29;12.50;;;4.03;;